Time;durP1;ratioP1;P1;durP2;ratioP2;P2;SDS_P1;SDS_P2;PMS_P1;PMS_P2;Temp;Humidity;BMP_temperature;BMP_pressure;BME280_temperature;BME280_humidity;BME280_pressure;Samples;Min_cycle;Max_cycle;Signal;HPM_P1;HPM_P2
2023/01/09 00:00:38;;;;;;;189.18;57.95;;;;;;;;;;5076729;28;20060;-83
2023/01/09 00:03:04;;;;;;;200.10;52.42;;;;;;;;;;5076697;28;20114;-83
2023/01/09 00:05:29;;;;;;;192.85;55.63;;;;;;;;;;5075459;28;20032;-83
2023/01/09 00:07:54;;;;;;;240.98;58.00;;;;;;;;;;5075196;28;20032;-83
2023/01/09 00:10:20;;;;;;;199.60;58.08;;;;;;;;;;5079212;28;20062;-83
2023/01/09 00:12:45;;;;;;;212.00;54.95;;;;;;;;;;5075999;28;20090;-83
2023/01/09 00:15:11;;;;;;;228.30;58.10;;;;;;;;;;5058220;28;20032;-83
2023/01/09 00:17:36;;;;;;;206.52;54.72;;;;;;;;;;5078795;28;20043;-84
2023/01/09 00:20:03;;;;;;;237.27;53.17;;;;;;;;;;5058430;28;20055;-83
2023/01/09 00:22:28;;;;;;;195.57;53.83;;;;;;;;;;5058644;28;20037;-84
2023/01/09 00:24:54;;;;;;;199.75;55.55;;;;;;;;;;5074783;28;20032;-83
2023/01/09 00:27:19;;;;;;;199.52;53.05;;;;;;;;;;5075655;28;20017;-83
2023/01/09 00:29:45;;;;;;;172.82;51.40;;;;;;;;;;5077014;28;20335;-83
2023/01/09 00:32:11;;;;;;;214.10;51.83;;;;;;;;;;5075261;28;20366;-83
2023/01/09 00:34:39;;;;;;;212.80;52.35;;;;;;;;;;5074962;28;20075;-83
2023/01/09 00:37:10;;;;;;;190.85;50.47;;;;;;;;;;5079366;28;20029;-84
2023/01/09 00:39:39;;;;;;;198.68;50.58;;;;;;;;;;5075929;28;20466;-83
2023/01/09 00:42:05;;;;;;;183.57;53.03;;;;;;;;;;5074204;28;20039;-83
2023/01/09 00:44:42;;;;;;;225.80;57.45;;;;;;;;;;5058034;28;20048;-83
2023/01/09 00:47:13;;;;;;;192.73;51.38;;;;;;;;;;5074635;28;20024;-83
2023/01/09 00:49:38;;;;;;;;;;;;;;;;;;5075229;28;20051;-83
2023/01/09 00:52:04;;;;;;;228.05;50.58;;;;;;;;;;5075206;28;20326;-83
2023/01/09 00:54:29;;;;;;;212.25;52.00;;;;;;;;;;5074470;28;20464;-84
2023/01/09 00:56:55;;;;;;;192.82;52.17;;;;;;;;;;5077617;28;20192;-83
2023/01/09 00:59:20;;;;;;;204.05;52.75;;;;;;;;;;5074206;28;20460;-83
2023/01/09 01:01:46;;;;;;;241.07;55.25;;;;;;;;;;5075274;28;20446;-83
2023/01/09 01:09:39;;;;;;;247.52;48.30;;;;;;;;;;5079048;28;20134;-83
2023/01/09 01:12:05;;;;;;;183.55;48.05;;;;;;;;;;5061370;28;20032;-83
2023/01/09 01:14:34;;;;;;;214.10;45.08;;;;;;;;;;5074006;28;20137;-83
2023/01/09 01:17:00;;;;;;;212.32;47.05;;;;;;;;;;5059654;28;20029;-83
2023/01/09 01:19:25;;;;;;;205.13;49.42;;;;;;;;;;5073949;28;20040;-83
2023/01/09 01:21:51;;;;;;;266.85;48.42;;;;;;;;;;5077883;28;20024;-84
2023/01/09 01:24:18;;;;;;;205.77;49.72;;;;;;;;;;5073027;28;20078;-83
2023/01/09 01:26:44;;;;;;;200.90;47.78;;;;;;;;;;5073652;28;20032;-83
2023/01/09 01:29:10;;;;;;;231.95;50.63;;;;;;;;;;5057179;28;20021;-83
2023/01/09 01:31:35;;;;;;;235.60;49.92;;;;;;;;;;5076534;28;20038;-83
2023/01/09 01:34:01;;;;;;;191.00;46.50;;;;;;;;;;5077073;28;20082;-83
2023/01/09 01:36:26;;;;;;;204.30;47.25;;;;;;;;;;5056780;28;20036;-83
2023/01/09 01:38:51;;;;;;;198.27;46.08;;;;;;;;;;5073446;28;20028;-83
2023/01/09 01:41:28;;;;;;;209.82;48.58;;;;;;;;;;5056913;28;20032;-83
2023/01/09 01:44:06;;;;;;;217.43;44.95;;;;;;;;;;5058384;28;20421;-83
2023/01/09 01:46:32;;;;;;;194.70;44.03;;;;;;;;;;5073304;28;20450;-83
2023/01/09 01:49:09;;;;;;;219.35;47.53;;;;;;;;;;5056946;28;20039;-83
2023/01/09 01:51:38;;;;;;;223.32;46.60;;;;;;;;;;5076383;28;20033;-83
2023/01/09 01:54:05;;;;;;;265.20;49.50;;;;;;;;;;5075982;28;20032;-83
2023/01/09 01:56:35;;;;;;;239.70;47.20;;;;;;;;;;5056738;28;20111;-83
2023/01/09 01:59:05;;;;;;;216.57;48.30;;;;;;;;;;5056529;28;20442;-84
2023/01/09 02:01:32;;;;;;;193.43;47.33;;;;;;;;;;5056382;28;20028;-83
2023/01/09 02:03:58;;;;;;;242.60;46.05;;;;;;;;;;5056990;28;20362;-83
2023/01/09 02:06:24;;;;;;;231.48;44.60;;;;;;;;;;5056572;28;20017;-83
2023/01/09 02:08:49;;;;;;;172.75;46.08;;;;;;;;;;5072923;28;20028;-83
2023/01/09 02:11:16;;;;;;;201.63;46.85;;;;;;;;;;5074751;28;20362;-83
2023/01/09 02:13:41;;;;;;;223.13;47.28;;;;;;;;;;5073651;28;20048;-83
2023/01/09 02:16:12;;;;;;;217.00;47.00;;;;;;;;;;5072521;28;20109;-83
2023/01/09 02:18:45;;;;;;;243.50;48.15;;;;;;;;;;5072720;28;20024;-83
2023/01/09 02:21:24;;;;;;;258.38;52.15;;;;;;;;;;5056570;28;20028;-83
2023/01/09 02:24:04;;;;;;;237.13;51.03;;;;;;;;;;5072772;28;20035;-83
2023/01/09 02:26:33;;;;;;;266.75;54.78;;;;;;;;;;5072805;28;20119;-83
2023/01/09 02:29:04;;;;;;;295.23;56.20;;;;;;;;;;5073794;28;20548;-84
2023/01/09 02:31:32;;;;;;;267.98;50.20;;;;;;;;;;5074975;28;20113;-83
2023/01/09 02:34:06;;;;;;;280.25;49.30;;;;;;;;;;5074254;28;20024;-83
2023/01/09 02:36:59;;;;;;;297.30;47.47;;;;;;;;;;5072779;28;20039;-83
2023/01/09 02:39:49;;;;;;;254.73;46.20;;;;;;;;;;5073693;28;20369;-84
2023/01/09 02:42:18;;;;;;;358.35;46.97;;;;;;;;;;5072465;28;20507;-84
2023/01/09 02:44:43;;;;;;;322.00;47.60;;;;;;;;;;5056132;28;20064;-84
2023/01/09 02:47:15;;;;;;;353.90;48.55;;;;;;;;;;5072790;28;20066;-84
2023/01/09 02:49:44;;;;;;;208.07;45.25;;;;;;;;;;5075486;28;20036;-84
2023/01/09 02:52:30;;;;;;;239.95;45.20;;;;;;;;;;5056205;28;20127;-84
2023/01/09 02:55:09;;;;;;;253.90;47.05;;;;;;;;;;5072713;28;20055;-84
2023/01/09 02:57:56;;;;;;;237.50;45.95;;;;;;;;;;5072313;28;20028;-83
2023/01/09 03:00:35;;;;;;;260.38;45.10;;;;;;;;;;5072491;28;20036;-84
2023/01/09 03:03:03;;;;;;;237.63;45.70;;;;;;;;;;5072398;28;20032;-83
2023/01/09 03:05:31;;;;;;;225.27;47.63;;;;;;;;;;5073715;28;20036;-83
2023/01/09 03:08:05;;;;;;;210.88;46.55;;;;;;;;;;5057338;28;20043;-83
2023/01/09 03:10:37;;;;;;;250.40;48.25;;;;;;;;;;5056165;28;20080;-83
2023/01/09 03:13:02;;;;;;;220.48;45.60;;;;;;;;;;5055916;28;20438;-84
2023/01/09 03:15:31;;;;;;;200.55;43.63;;;;;;;;;;5055757;28;20040;-83
2023/01/09 03:17:56;;;;;;;236.65;49.47;;;;;;;;;;5039221;28;20033;-83
2023/01/09 03:20:23;;;;;;;208.15;45.85;;;;;;;;;;5055460;28;20028;-83
2023/01/09 03:23:01;;;;;;;251.65;48.65;;;;;;;;;;5055703;28;20093;-84
2023/01/09 03:25:27;;;;;;;201.10;48.35;;;;;;;;;;5072354;28;20032;-83
2023/01/09 03:27:59;;;;;;;225.98;49.20;;;;;;;;;;5073957;28;20516;-84
2023/01/09 03:30:25;;;;;;;186.07;52.50;;;;;;;;;;5072344;28;20056;-84
2023/01/09 03:32:50;;;;;;;213.05;51.78;;;;;;;;;;5056235;28;20103;-84
2023/01/09 03:35:16;;;;;;;239.93;49.78;;;;;;;;;;5073075;28;20458;-84
2023/01/09 03:37:41;;;;;;;199.32;50.92;;;;;;;;;;5073272;28;20076;-84
2023/01/09 03:40:08;;;;;;;203.85;52.08;;;;;;;;;;5073479;28;20055;-84
2023/01/09 03:42:33;;;;;;;199.50;53.17;;;;;;;;;;5074245;28;20027;-83
2023/01/09 03:44:58;;;;;;;205.80;54.33;;;;;;;;;;5079651;28;20218;-84
2023/01/09 03:47:24;;;;;;;215.00;52.47;;;;;;;;;;5073392;28;20479;-83
2023/01/09 03:49:49;;;;;;;239.23;57.88;;;;;;;;;;5072079;28;20427;-83
2023/01/09 03:52:15;;;;;;;216.45;52.47;;;;;;;;;;5075824;28;20028;-83
2023/01/09 03:54:40;;;;;;;188.27;52.47;;;;;;;;;;5076541;28;20027;-84
2023/01/09 03:57:05;;;;;;;204.55;47.78;;;;;;;;;;5058805;28;20131;-84
2023/01/09 03:59:31;;;;;;;213.27;50.58;;;;;;;;;;5076369;28;20122;-84
2023/01/09 04:01:56;;;;;;;197.52;51.28;;;;;;;;;;5076705;28;20059;-84
2023/01/09 04:04:23;;;;;;;174.10;48.55;;;;;;;;;;5060651;28;20044;-84
2023/01/09 04:06:48;;;;;;;165.40;48.65;;;;;;;;;;5076899;28;20040;-84
2023/01/09 04:09:14;;;;;;;179.10;51.33;;;;;;;;;;5076805;28;20362;-84
2023/01/09 04:11:39;;;;;;;186.65;46.80;;;;;;;;;;5079376;28;20441;-84
2023/01/09 04:14:05;;;;;;;177.45;47.38;;;;;;;;;;5075246;28;20426;-84
2023/01/09 04:16:30;;;;;;;156.82;48.63;;;;;;;;;;5074797;28;20454;-84
2023/01/09 04:18:55;;;;;;;168.57;49.05;;;;;;;;;;5074719;28;20469;-84
2023/01/09 04:21:21;;;;;;;158.15;46.75;;;;;;;;;;5058256;28;20056;-84
2023/01/09 04:23:46;;;;;;;168.25;46.47;;;;;;;;;;5078977;28;20028;-84
2023/01/09 04:26:12;;;;;;;160.82;48.58;;;;;;;;;;5075932;28;20374;-84
2023/01/09 04:28:37;;;;;;;154.73;49.67;;;;;;;;;;5075095;28;20094;-83
2023/01/09 04:31:04;;;;;;;167.77;48.67;;;;;;;;;;5076358;28;20036;-83
2023/01/09 04:33:29;;;;;;;164.23;50.17;;;;;;;;;;5059478;28;20412;-84
2023/01/09 04:35:55;;;;;;;179.10;51.72;;;;;;;;;;5075873;28;20086;-83
2023/01/09 04:38:20;;;;;;;163.77;50.38;;;;;;;;;;5075655;28;20449;-83
2023/01/09 04:40:47;;;;;;;157.30;46.05;;;;;;;;;;5074850;28;20028;-85
2023/01/09 04:43:12;;;;;;;157.63;48.20;;;;;;;;;;5075922;28;20036;-84
2023/01/09 04:45:38;;;;;;;149.57;45.35;;;;;;;;;;5075840;28;20446;-83
2023/01/09 04:48:03;;;;;;;149.30;45.13;;;;;;;;;;5075681;28;20507;-83
2023/01/09 04:50:29;;;;;;;156.70;48.25;;;;;;;;;;5041300;28;20032;-83
2023/01/09 04:52:55;;;;;;;163.23;50.20;;;;;;;;;;5076431;28;20394;-83
2023/01/09 04:55:21;;;;;;;168.07;49.03;;;;;;;;;;5076668;28;20052;-84
2023/01/09 04:57:47;;;;;;;173.45;48.33;;;;;;;;;;5074250;28;20059;-83
2023/01/09 05:00:13;;;;;;;162.25;50.15;;;;;;;;;;5075594;28;20098;-84
2023/01/09 05:02:39;;;;;;;181.30;52.28;;;;;;;;;;5075401;28;20032;-83
2023/01/09 05:05:05;;;;;;;159.35;49.90;;;;;;;;;;5074150;28;20073;-83
2023/01/09 05:07:30;;;;;;;169.55;50.97;;;;;;;;;;5057839;28;20063;-83
2023/01/09 05:09:56;;;;;;;157.43;50.78;;;;;;;;;;5075382;28;20031;-83
2023/01/09 05:12:21;;;;;;;155.63;50.08;;;;;;;;;;5074562;28;20029;-83
2023/01/09 05:14:47;;;;;;;157.98;51.13;;;;;;;;;;5058724;28;20033;-84
2023/01/09 05:17:12;;;;;;;164.20;50.55;;;;;;;;;;5057059;28;20033;-84
2023/01/09 05:19:38;;;;;;;158.93;51.55;;;;;;;;;;5074126;28;20064;-84
2023/01/09 05:22:03;;;;;;;161.27;53.97;;;;;;;;;;5075756;28;20029;-83
2023/01/09 05:24:29;;;;;;;203.95;61.67;;;;;;;;;;5073928;28;20037;-83
2023/01/09 05:26:54;;;;;;;184.07;58.03;;;;;;;;;;5077611;28;20445;-83
2023/01/09 05:29:20;;;;;;;198.18;58.28;;;;;;;;;;5064265;28;20021;-78
2023/01/09 05:31:45;;;;;;;202.57;61.05;;;;;;;;;;5080997;28;20028;-81
2023/01/09 05:34:11;;;;;;;196.98;60.80;;;;;;;;;;5043118;28;20035;-81
2023/01/09 05:36:36;;;;;;;184.43;57.83;;;;;;;;;;5081386;28;20374;-81
2023/01/09 05:39:02;;;;;;;201.27;61.45;;;;;;;;;;5083642;28;20025;-81
2023/01/09 05:41:28;;;;;;;191.05;57.85;;;;;;;;;;5079567;28;20365;-82
2023/01/09 05:43:53;;;;;;;185.38;60.40;;;;;;;;;;5061110;28;20044;-81
2023/01/09 05:46:20;;;;;;;186.00;60.90;;;;;;;;;;5084282;28;20025;-81
2023/01/09 05:48:46;;;;;;;180.07;59.83;;;;;;;;;;5082373;28;20534;-80
2023/01/09 05:51:11;;;;;;;184.90;60.42;;;;;;;;;;5078136;28;20063;-80
2023/01/09 05:53:37;;;;;;;147.27;46.30;;;;;;;;;;5081686;28;20037;-81
2023/01/09 05:56:05;;;;;;;118.20;38.55;;;;;;;;;;5053513;28;20574;-82
2023/01/09 05:58:31;;;;;;;114.80;37.15;;;;;;;;;;5071365;28;20035;-83
2023/01/09 06:01:00;;;;;;;105.80;35.83;;;;;;;;;;5071113;28;20069;-82
2023/01/09 06:03:25;;;;;;;89.65;31.42;;;;;;;;;;5050775;28;20060;-80
2023/01/09 06:05:51;;;;;;;102.75;32.00;;;;;;;;;;5060010;28;20071;-82
2023/01/09 06:08:17;;;;;;;103.25;31.17;;;;;;;;;;5082299;28;20450;-80
2023/01/09 06:10:42;;;;;;;96.25;25.08;;;;;;;;;;5049087;28;20119;-80
2023/01/09 06:13:07;;;;;;;110.88;32.72;;;;;;;;;;5055225;28;20181;-80
2023/01/09 06:15:35;;;;;;;106.57;35.83;;;;;;;;;;5049725;28;20024;-80
2023/01/09 06:18:01;;;;;;;101.90;30.88;;;;;;;;;;5062194;28;20162;-81
2023/01/09 06:20:29;;;;;;;102.32;33.80;;;;;;;;;;5061933;28;20471;-81
2023/01/09 06:22:55;;;;;;;139.55;40.17;;;;;;;;;;5063423;28;20083;-81
2023/01/09 06:25:20;;;;;;;149.85;46.55;;;;;;;;;;5069098;28;20037;-80
2023/01/09 06:27:46;;;;;;;157.60;51.28;;;;;;;;;;5066238;28;20043;-81
2023/01/09 06:30:20;;;;;;;159.70;53.38;;;;;;;;;;5062269;28;20432;-82
2023/01/09 06:32:49;;;;;;;163.60;48.92;;;;;;;;;;5068975;28;21687;-80
2023/01/09 06:35:24;;;;;;;139.30;45.65;;;;;;;;;;5065779;28;20033;-79
2023/01/09 06:37:50;;;;;;;145.02;51.60;;;;;;;;;;5049401;28;20041;-80
2023/01/09 06:40:16;;;;;;;155.75;55.78;;;;;;;;;;5063114;28;20031;-79
2023/01/09 06:42:43;;;;;;;160.82;52.75;;;;;;;;;;5087384;28;20040;-81
2023/01/09 06:45:18;;;;;;;153.18;50.20;;;;;;;;;;5075473;28;20052;-81
2023/01/09 06:47:44;;;;;;;115.15;37.78;;;;;;;;;;5049984;28;20040;-80
2023/01/09 06:50:10;;;;;;;105.15;32.53;;;;;;;;;;5072528;28;20035;-78
2023/01/09 06:52:36;;;;;;;123.85;41.05;;;;;;;;;;5075542;28;20040;-81
2023/01/09 06:55:01;;;;;;;142.27;45.03;;;;;;;;;;5072981;28;20059;-81
2023/01/09 06:57:27;;;;;;;137.60;46.63;;;;;;;;;;5052777;28;20098;-81
2023/01/09 06:59:52;;;;;;;155.00;48.85;;;;;;;;;;5072611;28;20047;-80
2023/01/09 07:02:19;;;;;;;150.23;51.20;;;;;;;;;;5046300;28;20034;-78
2023/01/09 07:04:44;;;;;;;188.57;74.35;;;;;;;;;;5039414;28;20339;-81
2023/01/09 07:07:10;;;;;;;218.23;86.50;;;;;;;;;;5083185;28;20032;-79
2023/01/09 07:09:35;;;;;;;219.45;92.60;;;;;;;;;;5092703;28;20070;-81
2023/01/09 07:12:01;;;;;;;187.88;76.40;;;;;;;;;;5081143;28;20025;-80
2023/01/09 07:14:26;;;;;;;157.20;58.45;;;;;;;;;;5059655;28;20033;-81
2023/01/09 07:16:52;;;;;;;133.13;49.78;;;;;;;;;;5086841;28;20039;-80
2023/01/09 07:19:19;;;;;;;144.30;49.20;;;;;;;;;;5065521;28;20131;-79
2023/01/09 07:21:45;;;;;;;143.23;48.47;;;;;;;;;;5063984;28;20069;-82
2023/01/09 07:24:10;;;;;;;160.32;54.15;;;;;;;;;;5061625;28;20036;-79
2023/01/09 07:26:36;;;;;;;147.25;55.42;;;;;;;;;;5074921;28;20143;-82
2023/01/09 07:29:01;;;;;;;143.45;54.90;;;;;;;;;;5078813;28;20031;-80
2023/01/09 07:31:27;;;;;;;130.48;45.08;;;;;;;;;;5076306;28;20033;-80
2023/01/09 07:33:53;;;;;;;134.32;45.42;;;;;;;;;;5075606;28;20025;-80
2023/01/09 07:36:18;;;;;;;132.70;43.15;;;;;;;;;;5075747;28;20039;-80
2023/01/09 07:38:46;;;;;;;114.53;40.53;;;;;;;;;;5075786;28;20032;-81
2023/01/09 07:41:11;;;;;;;143.13;48.22;;;;;;;;;;5053530;28;20044;-80
2023/01/09 07:43:37;;;;;;;149.38;48.17;;;;;;;;;;5077073;28;20154;-81
2023/01/09 07:46:03;;;;;;;135.85;45.83;;;;;;;;;;5065785;28;20056;-81
2023/01/09 07:48:33;;;;;;;146.43;42.35;;;;;;;;;;5084147;28;20036;-81
2023/01/09 07:50:58;;;;;;;128.80;40.97;;;;;;;;;;5074257;28;20039;-78
2023/01/09 07:53:25;;;;;;;131.32;41.08;;;;;;;;;;5068631;28;20028;-79
2023/01/09 07:55:51;;;;;;;130.38;40.20;;;;;;;;;;5054355;28;20032;-80
2023/01/09 07:58:20;;;;;;;179.70;76.40;;;;;;;;;;5069394;28;20063;-80
2023/01/09 08:00:51;;;;;;;183.27;77.97;;;;;;;;;;5071714;28;20032;-80
2023/01/09 08:03:16;;;;;;;159.95;70.60;;;;;;;;;;5066271;28;20366;-80
2023/01/09 08:05:42;;;;;;;123.50;40.90;;;;;;;;;;5073812;28;20028;-80
2023/01/09 08:08:08;;;;;;;119.63;34.70;;;;;;;;;;5077293;28;20036;-80
2023/01/09 08:10:34;;;;;;;112.45;37.15;;;;;;;;;;5073919;28;20028;-80
2023/01/09 08:12:59;;;;;;;106.35;35.38;;;;;;;;;;5075411;28;20058;-79
2023/01/09 08:15:25;;;;;;;115.93;38.65;;;;;;;;;;5070657;28;20028;-81
2023/01/09 08:17:50;;;;;;;108.47;36.67;;;;;;;;;;5076231;28;20080;-80
2023/01/09 08:20:16;;;;;;;112.10;35.92;;;;;;;;;;5068932;28;20036;-79
2023/01/09 08:22:42;;;;;;;112.10;36.20;;;;;;;;;;5067094;28;20028;-81
2023/01/09 08:25:08;;;;;;;116.85;36.38;;;;;;;;;;5067002;28;20556;-80
2023/01/09 08:27:34;;;;;;;104.80;35.58;;;;;;;;;;5067994;28;20094;-79
2023/01/09 08:29:59;;;;;;;125.20;41.25;;;;;;;;;;5069342;28;20458;-79
2023/01/09 08:32:25;;;;;;;107.97;36.80;;;;;;;;;;5074742;28;20068;-78
2023/01/09 08:34:51;;;;;;;106.03;33.65;;;;;;;;;;5071196;28;20028;-79
2023/01/09 08:37:16;;;;;;;103.00;33.42;;;;;;;;;;5073221;28;20590;-81
2023/01/09 08:39:42;;;;;;;109.63;35.80;;;;;;;;;;5068534;28;20472;-80
2023/01/09 08:47:35;;;;;;;82.18;29.80;;;;;;;;;;5091224;28;20104;-80
2023/01/09 08:50:04;;;;;;;94.60;31.90;;;;;;;;;;5060615;28;20044;-81
2023/01/09 08:52:30;;;;;;;93.07;33.42;;;;;;;;;;5076322;28;20036;-79
2023/01/09 08:54:59;;;;;;;94.07;31.88;;;;;;;;;;5073615;28;20040;-81
2023/01/09 08:57:25;;;;;;;99.18;30.73;;;;;;;;;;5076746;28;20039;-81
2023/01/09 08:59:50;;;;;;;77.25;28.45;;;;;;;;;;5074705;28;20035;-82
2023/01/09 09:02:16;;;;;;;82.50;27.55;;;;;;;;;;5059155;28;20024;-80
2023/01/09 09:04:42;;;;;;;80.97;31.20;;;;;;;;;;5046127;28;20477;-79
2023/01/09 09:07:07;;;;;;;89.18;31.80;;;;;;;;;;5066822;28;20037;-82
2023/01/09 09:09:33;;;;;;;79.72;27.88;;;;;;;;;;5068395;28;20031;-79
2023/01/09 09:11:58;;;;;;;70.10;26.08;;;;;;;;;;5068517;28;20032;-81
2023/01/09 09:17:08;;;;;;;70.97;25.35;;;;;;;;;;5066299;28;20039;-80
2023/01/09 09:19:33;;;;;;;77.72;26.35;;;;;;;;;;5060246;28;20024;-80
2023/01/09 09:21:59;;;;;;;65.55;24.60;;;;;;;;;;5062685;28;20036;-79
2023/01/09 09:24:24;;;;;;;70.03;25.33;;;;;;;;;;5065343;28;20032;-80
2023/01/09 09:26:50;;;;;;;67.53;24.42;;;;;;;;;;5067613;28;20024;-78
2023/01/09 09:29:18;;;;;;;66.32;23.23;;;;;;;;;;5072090;28;20029;-81
2023/01/09 09:31:44;;;;;;;73.50;25.65;;;;;;;;;;5050283;28;20021;-79
2023/01/09 09:34:09;;;;;;;74.05;25.75;;;;;;;;;;5070217;28;20073;-78
2023/01/09 09:36:35;;;;;;;68.30;24.65;;;;;;;;;;5069073;28;20032;-78
2023/01/09 09:39:01;;;;;;;67.57;26.35;;;;;;;;;;5071322;28;20120;-77
2023/01/09 09:45:15;;;;;;;85.80;30.13;;;;;;;;;;5077824;28;20119;-78
2023/01/09 09:48:00;;;;;;;71.80;25.27;;;;;;;;;;5067863;28;20032;-78
2023/01/09 09:50:35;;;;;;;76.63;25.38;;;;;;;;;;5072528;28;20028;-78
2023/01/09 09:53:06;;;;;;;61.40;22.58;;;;;;;;;;5061089;28;20028;-79
2023/01/09 09:55:41;;;;;;;59.95;22.38;;;;;;;;;;5067717;28;20062;-81
2023/01/09 09:58:20;;;;;;;59.53;22.67;;;;;;;;;;5064442;28;20039;-80
2023/01/09 10:00:49;;;;;;;60.15;22.42;;;;;;;;;;5042756;28;20031;-81
2023/01/09 10:03:26;;;;;;;58.42;20.30;;;;;;;;;;5065271;28;20055;-80
2023/01/09 10:05:51;;;;;;;58.58;21.50;;;;;;;;;;5055757;28;20457;-80
2023/01/09 10:08:35;;;;;;;59.53;22.70;;;;;;;;;;5068800;28;20078;-80
2023/01/09 10:11:01;;;;;;;61.97;22.35;;;;;;;;;;5051965;28;20135;-81
2023/01/09 10:16:41;;;;;;;51.28;20.75;;;;;;;;;;5056003;28;20038;-82
2023/01/09 10:19:25;;;;;;;57.85;21.95;;;;;;;;;;5053190;28;20033;-83
2023/01/09 10:22:09;;;;;;;57.25;22.90;;;;;;;;;;5088608;28;20132;-79
2023/01/09 10:25:04;;;;;;;60.65;22.63;;;;;;;;;;5070745;28;20032;-81
2023/01/09 10:27:48;;;;;;;58.67;23.17;;;;;;;;;;5048672;28;20063;-81
2023/01/09 10:30:42;;;;;;;64.57;23.48;;;;;;;;;;5073409;28;20045;-81
2023/01/09 10:33:46;;;;;;;78.03;32.00;;;;;;;;;;5073779;28;20165;-81
2023/01/09 10:36:54;;;;;;;74.63;29.40;;;;;;;;;;5072688;28;20128;-84
2023/01/09 10:39:38;;;;;;;69.25;27.67;;;;;;;;;;5059432;28;20044;-82
2023/01/09 10:42:29;;;;;;;67.25;25.00;;;;;;;;;;5051723;22;20149;-82
2023/01/09 10:45:22;;;;;;;66.03;24.60;;;;;;;;;;5027663;28;20077;-82
2023/01/09 10:47:47;;;;;;;64.20;23.98;;;;;;;;;;5025866;28;20033;-80
2023/01/09 10:50:21;;;;;;;71.30;26.83;;;;;;;;;;5029183;28;20128;-79
2023/01/09 10:52:57;;;;;;;75.32;28.30;;;;;;;;;;5036151;22;20060;-80
2023/01/09 10:55:43;;;;;;;66.78;25.70;;;;;;;;;;5015400;28;20088;-79
2023/01/09 10:58:19;;;;;;;63.80;25.35;;;;;;;;;;5028211;28;20067;-79
2023/01/09 11:00:45;;;;;;;61.47;24.02;;;;;;;;;;5035363;28;20567;-80
2023/01/09 11:03:21;;;;;;;48.15;20.23;;;;;;;;;;5000516;28;20040;-82
2023/01/09 11:05:57;;;;;;;45.17;17.55;;;;;;;;;;5031632;28;20026;-79
2023/01/09 11:08:40;;;;;;;43.80;18.10;;;;;;;;;;5018900;28;20022;-81
2023/01/09 11:11:06;;;;;;;40.25;16.65;;;;;;;;;;5032407;28;20085;-82
2023/01/09 11:13:33;;;;;;;44.70;17.17;;;;;;;;;;4998931;28;20025;-80
2023/01/09 11:16:15;;;;;;;40.97;17.15;;;;;;;;;;5009663;28;20047;-82
2023/01/09 11:18:49;;;;;;;40.47;16.60;;;;;;;;;;5037132;28;20021;-79
2023/01/09 11:21:36;;;;;;;39.53;18.40;;;;;;;;;;5031678;28;20060;-83
2023/01/09 11:24:54;;;;;;;;;;;;;;;;;;;;;
2023/01/09 11:33:29;;;;;;;39.63;18.40;;;;;;;;;;5030440;28;20118;-84
2023/01/09 11:35:59;;;;;;;50.33;20.38;;;;;;;;;;4986682;28;20049;-82
2023/01/09 11:38:24;;;;;;;44.47;18.85;;;;;;;;;;5011201;28;20110;-83
2023/01/09 11:41:30;;;;;;;51.58;22.38;;;;;;;;;;5032435;28;20041;-83
2023/01/09 11:43:57;;;;;;;39.45;19.90;;;;;;;;;;5037547;28;20053;-82
2023/01/09 11:46:39;;;;;;;41.58;18.92;;;;;;;;;;5028695;28;20391;-82
2023/01/09 11:49:24;;;;;;;40.70;17.85;;;;;;;;;;5012706;28;20064;-83
2023/01/09 11:52:09;;;;;;;37.25;16.88;;;;;;;;;;5012916;28;20029;-82
2023/01/09 11:54:35;;;;;;;37.78;17.50;;;;;;;;;;5020854;28;20077;-79
2023/01/09 11:57:00;;;;;;;41.90;17.05;;;;;;;;;;5019424;28;20128;-83
2023/01/09 11:59:29;;;;;;;44.60;18.40;;;;;;;;;;5041170;28;20072;-83
2023/01/09 12:02:24;;;;;;;43.95;18.75;;;;;;;;;;5033554;28;20501;-82
2023/01/09 12:04:54;;;;;;;52.17;20.75;;;;;;;;;;5014877;28;20046;-83
2023/01/09 12:07:42;;;;;;;56.80;23.45;;;;;;;;;;5002271;28;20040;-83
2023/01/09 12:10:16;;;;;;;41.90;18.30;;;;;;;;;;5034036;28;20044;-80
2023/01/09 12:12:56;;;;;;;44.63;19.88;;;;;;;;;;5031235;28;20421;-84
2023/01/09 12:15:49;;;;;;;45.03;18.63;;;;;;;;;;5031212;28;20029;-83
2023/01/09 12:18:28;;;;;;;46.17;19.05;;;;;;;;;;5030291;28;20046;-83
2023/01/09 12:21:05;;;;;;;44.20;18.40;;;;;;;;;;5014623;28;20038;-83
2023/01/09 12:23:52;;;;;;;46.35;19.63;;;;;;;;;;5019923;28;20034;-84
2023/01/09 12:26:30;;;;;;;47.35;19.58;;;;;;;;;;5033577;28;20029;-84
2023/01/09 12:29:17;;;;;;;52.25;21.20;;;;;;;;;;5033736;28;20386;-84
2023/01/09 12:32:06;;;;;;;51.75;21.00;;;;;;;;;;5032312;28;20091;-84
2023/01/09 12:35:05;;;;;;;58.38;20.52;;;;;;;;;;5023909;28;20436;-83
2023/01/09 12:37:42;;;;;;;61.50;23.33;;;;;;;;;;5027008;28;20440;-84
2023/01/09 12:40:16;;;;;;;63.60;24.58;;;;;;;;;;5014755;28;20448;-81
2023/01/09 12:42:57;;;;;;;49.55;18.90;;;;;;;;;;5014067;28;20068;-82
2023/01/09 12:45:31;;;;;;;;;;;;;;;;;;5015156;28;20083;-83
2023/01/09 12:48:14;;;;;;;64.55;24.13;;;;;;;;;;5014803;28;19917;-82
2023/01/09 12:51:04;;;;;;;58.83;21.25;;;;;;;;;;5014780;28;20026;-82
2023/01/09 12:53:31;;;;;;;57.35;20.85;;;;;;;;;;5015751;28;20120;-82
2023/01/09 12:56:13;;;;;;;59.20;21.77;;;;;;;;;;4988772;28;20026;-83
2023/01/09 12:58:42;;;;;;;59.30;23.77;;;;;;;;;;4997025;28;20242;-82
2023/01/09 13:01:12;;;;;;;52.90;23.00;;;;;;;;;;5012787;28;20037;-83
2023/01/09 13:04:09;;;;;;;65.45;25.73;;;;;;;;;;5012100;28;20459;-83
2023/01/09 13:06:36;;;;;;;61.28;23.50;;;;;;;;;;4998500;28;20555;-82
2023/01/09 13:09:13;;;;;;;55.72;22.83;;;;;;;;;;5012598;28;20325;-82
2023/01/09 13:12:01;;;;;;;64.95;24.23;;;;;;;;;;5013673;28;20408;-82
2023/01/09 13:14:58;;;;;;;56.95;21.73;;;;;;;;;;5003246;28;20065;-82
2023/01/09 13:17:30;;;;;;;56.83;21.83;;;;;;;;;;5009934;28;20147;-81
2023/01/09 13:19:56;;;;;;;64.97;24.73;;;;;;;;;;5014154;28;20037;-83
2023/01/09 13:22:26;;;;;;;76.53;26.20;;;;;;;;;;5015828;28;20038;-82
2023/01/09 13:25:19;;;;;;;82.47;33.72;;;;;;;;;;5014086;28;20459;-82
2023/01/09 13:27:48;;;;;;;71.63;25.38;;;;;;;;;;5015014;28;20034;-83
2023/01/09 13:30:37;;;;;;;62.88;22.55;;;;;;;;;;4997888;28;20428;-83
2023/01/09 13:33:19;;;;;;;62.85;22.83;;;;;;;;;;5009664;28;20042;-83
2023/01/09 13:35:52;;;;;;;65.93;21.92;;;;;;;;;;5022508;28;20052;-82
2023/01/09 13:38:22;;;;;;;61.85;22.90;;;;;;;;;;4998676;28;20050;-81
2023/01/09 13:44:24;;;;;;;75.50;26.05;;;;;;;;;;5014003;28;20033;-78
2023/01/09 13:46:57;;;;;;;74.50;26.13;;;;;;;;;;5013466;28;20049;-78
2023/01/09 13:49:33;;;;;;;74.25;25.42;;;;;;;;;;5013973;28;20029;-78
2023/01/09 13:52:05;;;;;;;64.95;24.75;;;;;;;;;;5014093;28;20030;-78
2023/01/09 13:54:46;;;;;;;73.15;25.45;;;;;;;;;;5009843;28;20022;-81
2023/01/09 13:57:15;;;;;;;;;;;;;;;;;;5015348;28;20116;-82
2023/01/09 13:59:41;;;;;;;63.55;22.67;;;;;;;;;;5014659;28;20242;-81
2023/01/09 14:02:34;;;;;;;69.78;24.48;;;;;;;;;;5013853;28;20464;-81
2023/01/09 14:05:07;;;;;;;70.70;25.98;;;;;;;;;;5014971;28;20099;-81
2023/01/09 14:07:44;;;;;;;94.32;32.75;;;;;;;;;;5014665;28;20076;-82
2023/01/09 14:10:18;;;;;;;84.88;27.95;;;;;;;;;;4998944;28;20057;-81
2023/01/09 14:12:44;;;;;;;80.45;27.40;;;;;;;;;;5021757;28;20460;-81
2023/01/09 14:15:38;;;;;;;80.85;27.23;;;;;;;;;;5018873;28;20040;-82
2023/01/09 14:18:05;;;;;;;84.05;29.95;;;;;;;;;;5011783;28;20059;-83
2023/01/09 14:20:38;;;;;;;91.07;31.50;;;;;;;;;;4997482;28;20125;-82
2023/01/09 14:23:05;;;;;;;95.05;32.65;;;;;;;;;;4998408;28;20079;-82
2023/01/09 14:25:31;;;;;;;88.47;31.08;;;;;;;;;;4981832;28;20034;-82
2023/01/09 14:27:56;;;;;;;86.10;32.13;;;;;;;;;;4996992;28;20459;-82
2023/01/09 14:30:24;;;;;;;81.63;30.63;;;;;;;;;;5014238;28;20025;-81
2023/01/09 14:33:18;;;;;;;82.32;28.38;;;;;;;;;;5025597;28;20025;-82
2023/01/09 14:35:47;;;;;;;80.82;29.13;;;;;;;;;;5014671;28;20029;-82
2023/01/09 14:38:29;;;;;;;86.55;31.50;;;;;;;;;;5012832;28;20042;-82
2023/01/09 14:40:58;;;;;;;82.72;27.50;;;;;;;;;;5012969;28;20037;-81
2023/01/09 14:43:30;;;;;;;79.95;28.70;;;;;;;;;;5012797;28;20045;-82
2023/01/09 14:46:02;;;;;;;85.97;29.27;;;;;;;;;;4997329;28;20187;-81
2023/01/09 14:48:27;;;;;;;74.50;26.33;;;;;;;;;;5013498;28;20041;-82
2023/01/09 14:50:55;;;;;;;70.57;26.00;;;;;;;;;;5016284;28;20023;-83
2023/01/09 14:53:25;;;;;;;74.07;27.73;;;;;;;;;;5025336;28;20038;-82
2023/01/09 14:55:56;;;;;;;70.63;26.20;;;;;;;;;;4997238;28;20030;-82
2023/01/09 14:58:25;;;;;;;75.55;26.63;;;;;;;;;;5013838;28;20068;-81
2023/01/09 15:01:14;;;;;;;72.88;26.67;;;;;;;;;;5013098;28;20030;-82